sensor_id;sensor_type;location;lat;lon;timestamp;pressure;altitude;pressure_sealevel;temperature;humidity
75208;BME280;63795;55.684;37.864;2023-07-31T00:02:55;99072.06;;;17.64;60.13
75208;BME280;63795;55.684;37.864;2023-07-31T00:07:55;99067.13;;;17.55;59.76
75208;BME280;63795;55.684;37.864;2023-07-31T00:12:56;99059.44;;;17.52;60.62
75208;BME280;63795;55.684;37.864;2023-07-31T00:17:56;99077.59;;;17.49;59.84
75208;BME280;63795;55.684;37.864;2023-07-31T00:22:57;99071.31;;;17.42;61.16
75208;BME280;63795;55.684;37.864;2023-07-31T00:27:57;99072.75;;;17.37;60.67
75208;BME280;63795;55.684;37.864;2023-07-31T00:32:58;99067.94;;;17.34;60.55
75208;BME280;63795;55.684;37.864;2023-07-31T00:37:58;99072.44;;;17.35;61.23
75208;BME280;63795;55.684;37.864;2023-07-31T00:42:59;99060.75;;;17.30;60.99
75208;BME280;63795;55.684;37.864;2023-07-31T00:47:59;99061.41;;;17.25;61.95
75208;BME280;63795;55.684;37.864;2023-07-31T00:53:00;99073.34;;;17.23;61.06
75208;BME280;63795;55.684;37.864;2023-07-31T00:58:00;99059.47;;;17.22;61.85
75208;BME280;63795;55.684;37.864;2023-07-31T01:03:01;99061.56;;;17.21;61.49
75208;BME280;63795;55.684;37.864;2023-07-31T01:13:34;99064.34;;;17.12;61.61
75208;BME280;63795;55.684;37.864;2023-07-31T01:18:34;99061.50;;;17.12;62.50
75208;BME280;63795;55.684;37.864;2023-07-31T01:29:02;99072.25;;;16.99;62.53
75208;BME280;63795;55.684;37.864;2023-07-31T01:34:04;99064.59;;;16.96;63.00
75208;BME280;63795;55.684;37.864;2023-07-31T01:39:06;99057.09;;;16.89;63.22
75208;BME280;63795;55.684;37.864;2023-07-31T01:44:06;99057.84;;;16.81;62.45
75208;BME280;63795;55.684;37.864;2023-07-31T01:49:07;99066.56;;;16.77;62.31
75208;BME280;63795;55.684;37.864;2023-07-31T01:54:07;99073.09;;;16.78;62.46
75208;BME280;63795;55.684;37.864;2023-07-31T01:59:07;99062.13;;;16.76;64.79
75208;BME280;63795;55.684;37.864;2023-07-31T02:04:08;99071.50;;;16.77;62.64
75208;BME280;63795;55.684;37.864;2023-07-31T02:09:08;99072.25;;;16.68;63.96
75208;BME280;63795;55.684;37.864;2023-07-31T02:14:09;99074.63;;;16.70;63.37
75208;BME280;63795;55.684;37.864;2023-07-31T02:19:09;99078.78;;;16.69;63.09
75208;BME280;63795;55.684;37.864;2023-07-31T02:24:10;99077.97;;;16.68;63.20
75208;BME280;63795;55.684;37.864;2023-07-31T02:29:10;99081.00;;;16.74;62.83
75208;BME280;63795;55.684;37.864;2023-07-31T02:34:11;99070.50;;;16.71;63.02
75208;BME280;63795;55.684;37.864;2023-07-31T02:39:11;99075.94;;;16.78;62.91
75208;BME280;63795;55.684;37.864;2023-07-31T02:44:12;99073.41;;;16.80;63.17
75208;BME280;63795;55.684;37.864;2023-07-31T02:49:14;99073.94;;;16.87;63.00
75208;BME280;63795;55.684;37.864;2023-07-31T02:54:15;99070.63;;;16.89;62.78
75208;BME280;63795;55.684;37.864;2023-07-31T02:59:17;99070.66;;;16.98;63.41
75208;BME280;63795;55.684;37.864;2023-07-31T03:04:18;99079.91;;;17.02;62.83
75208;BME280;63795;55.684;37.864;2023-07-31T03:09:18;99084.56;;;17.09;62.46
75208;BME280;63795;55.684;37.864;2023-07-31T03:14:20;99069.94;;;17.16;62.71
75208;BME280;63795;55.684;37.864;2023-07-31T03:19:20;99063.94;;;17.23;62.49
75208;BME280;63795;55.684;37.864;2023-07-31T03:24:21;99074.91;;;17.24;62.21
75208;BME280;63795;55.684;37.864;2023-07-31T03:29:22;99068.25;;;17.27;62.55
75208;BME280;63795;55.684;37.864;2023-07-31T03:34:22;99069.72;;;17.41;62.39
75208;BME280;63795;55.684;37.864;2023-07-31T03:39:23;99069.78;;;17.50;62.29
75208;BME280;63795;55.684;37.864;2023-07-31T03:44:23;99073.81;;;17.61;62.85
75208;BME280;63795;55.684;37.864;2023-07-31T03:49:24;99085.28;;;17.70;62.25
75208;BME280;63795;55.684;37.864;2023-07-31T03:54:24;99064.28;;;17.82;62.60
75208;BME280;63795;55.684;37.864;2023-07-31T03:59:25;99067.50;;;17.94;62.27
75208;BME280;63795;55.684;37.864;2023-07-31T04:04:25;99064.63;;;18.03;61.97
75208;BME280;63795;55.684;37.864;2023-07-31T04:09:26;99071.97;;;18.13;61.84
75208;BME280;63795;55.684;37.864;2023-07-31T04:14:26;99072.78;;;18.22;61.96
75208;BME280;63795;55.684;37.864;2023-07-31T04:19:26;99074.84;;;18.31;61.76
75208;BME280;63795;55.684;37.864;2023-07-31T04:24:27;99096.88;;;18.43;61.81
75208;BME280;63795;55.684;37.864;2023-07-31T04:29:27;99083.81;;;18.51;61.44
75208;BME280;63795;55.684;37.864;2023-07-31T04:34:28;99083.66;;;18.63;61.81
75208;BME280;63795;55.684;37.864;2023-07-31T04:39:28;99075.50;;;18.71;61.38
75208;BME280;63795;55.684;37.864;2023-07-31T04:44:29;99078.00;;;18.87;61.11
75208;BME280;63795;55.684;37.864;2023-07-31T04:49:31;99098.38;;;19.07;60.65
75208;BME280;63795;55.684;37.864;2023-07-31T04:54:31;99090.84;;;19.19;60.39
75208;BME280;63795;55.684;37.864;2023-07-31T04:59:32;99090.19;;;19.33;60.58
75208;BME280;63795;55.684;37.864;2023-07-31T05:04:32;99099.53;;;19.52;59.85
75208;BME280;63795;55.684;37.864;2023-07-31T05:09:35;99098.84;;;19.66;58.61
75208;BME280;63795;55.684;37.864;2023-07-31T05:14:36;99098.75;;;19.75;59.14
75208;BME280;63795;55.684;37.864;2023-07-31T05:19:37;99103.63;;;19.92;58.62
75208;BME280;63795;55.684;37.864;2023-07-31T05:24:37;99100.19;;;20.03;58.40
75208;BME280;63795;55.684;37.864;2023-07-31T05:29:38;99102.03;;;20.15;56.89
75208;BME280;63795;55.684;37.864;2023-07-31T05:34:38;99099.13;;;20.24;55.79
75208;BME280;63795;55.684;37.864;2023-07-31T05:39:39;99099.66;;;20.37;56.75
75208;BME280;63795;55.684;37.864;2023-07-31T05:44:39;99106.16;;;20.61;55.85
75208;BME280;63795;55.684;37.864;2023-07-31T05:49:40;99114.03;;;20.75;53.60
75208;BME280;63795;55.684;37.864;2023-07-31T05:54:41;99105.50;;;20.81;52.02
75208;BME280;63795;55.684;37.864;2023-07-31T05:59:42;99110.28;;;20.98;52.53
75208;BME280;63795;55.684;37.864;2023-07-31T06:04:43;99108.75;;;21.12;52.71
75208;BME280;63795;55.684;37.864;2023-07-31T06:09:43;99108.44;;;21.25;52.63
75208;BME280;63795;55.684;37.864;2023-07-31T06:14:47;99098.59;;;21.46;53.29
75208;BME280;63795;55.684;37.864;2023-07-31T06:19:47;99112.06;;;21.69;48.74
75208;BME280;63795;55.684;37.864;2023-07-31T06:24:48;99101.59;;;21.86;47.45
75208;BME280;63795;55.684;37.864;2023-07-31T06:29:49;99106.25;;;22.18;47.66
75208;BME280;63795;55.684;37.864;2023-07-31T06:34:49;99108.53;;;22.95;46.94
75208;BME280;63795;55.684;37.864;2023-07-31T06:39:50;99117.31;;;23.94;46.23
75208;BME280;63795;55.684;37.864;2023-07-31T06:44:50;99128.88;;;24.73;43.22
75208;BME280;63795;55.684;37.864;2023-07-31T06:49:51;99126.31;;;25.08;41.81
75208;BME280;63795;55.684;37.864;2023-07-31T06:55:16;99132.41;;;25.15;40.10
75208;BME280;63795;55.684;37.864;2023-07-31T07:00:22;99119.81;;;25.46;41.50
75208;BME280;63795;55.684;37.864;2023-07-31T07:05:23;99123.47;;;26.02;42.26
75208;BME280;63795;55.684;37.864;2023-07-31T07:10:23;99126.34;;;26.35;38.67
75208;BME280;63795;55.684;37.864;2023-07-31T07:15:24;99130.72;;;26.64;40.03
75208;BME280;63795;55.684;37.864;2023-07-31T07:20:24;99127.13;;;27.04;35.41
75208;BME280;63795;55.684;37.864;2023-07-31T07:25:25;99143.56;;;26.96;34.00
75208;BME280;63795;55.684;37.864;2023-07-31T07:30:25;99144.66;;;26.93;35.45
75208;BME280;63795;55.684;37.864;2023-07-31T07:35:26;99142.50;;;26.99;33.93
75208;BME280;63795;55.684;37.864;2023-07-31T07:40:26;99145.59;;;27.12;34.14
75208;BME280;63795;55.684;37.864;2023-07-31T07:45:27;99144.97;;;27.30;34.51
75208;BME280;63795;55.684;37.864;2023-07-31T07:50:28;99147.91;;;27.25;34.17
75208;BME280;63795;55.684;37.864;2023-07-31T07:55:28;99141.03;;;27.22;31.98
75208;BME280;63795;55.684;37.864;2023-07-31T08:00:28;99140.50;;;27.24;32.48
75208;BME280;63795;55.684;37.864;2023-07-31T08:05:29;99133.06;;;27.28;31.65
75208;BME280;63795;55.684;37.864;2023-07-31T08:10:30;99153.69;;;27.30;33.44
75208;BME280;63795;55.684;37.864;2023-07-31T08:15:30;99142.44;;;27.10;32.27
75208;BME280;63795;55.684;37.864;2023-07-31T08:20:31;99140.16;;;27.38;32.39
75208;BME280;63795;55.684;37.864;2023-07-31T08:25:34;99150.41;;;27.50;32.71
75208;BME280;63795;55.684;37.864;2023-07-31T08:30:35;99146.84;;;27.33;30.37
75208;BME280;63795;55.684;37.864;2023-07-31T08:35:36;99147.75;;;27.52;31.98
75208;BME280;63795;55.684;37.864;2023-07-31T08:40:39;99150.31;;;27.21;31.07
75208;BME280;63795;55.684;37.864;2023-07-31T08:45:41;99147.44;;;27.15;31.00
75208;BME280;63795;55.684;37.864;2023-07-31T08:50:43;99150.84;;;27.60;31.91
75208;BME280;63795;55.684;37.864;2023-07-31T08:55:44;99153.50;;;27.99;31.61
75208;BME280;63795;55.684;37.864;2023-07-31T09:00:46;99159.97;;;28.64;31.60
75208;BME280;63795;55.684;37.864;2023-07-31T09:05:47;99155.78;;;28.35;28.58
75208;BME280;63795;55.684;37.864;2023-07-31T09:10:48;99155.72;;;28.41;29.81
75208;BME280;63795;55.684;37.864;2023-07-31T09:15:50;99155.97;;;29.10;29.64
75208;BME280;63795;55.684;37.864;2023-07-31T09:21:00;99164.34;;;29.37;28.72
75208;BME280;63795;55.684;37.864;2023-07-31T09:26:02;99147.59;;;28.58;29.85
75208;BME280;63795;55.684;37.864;2023-07-31T09:31:02;99146.00;;;28.57;30.53
75208;BME280;63795;55.684;37.864;2023-07-31T09:36:04;99163.94;;;29.09;30.70
75208;BME280;63795;55.684;37.864;2023-07-31T09:41:05;99157.47;;;29.16;28.37
75208;BME280;63795;55.684;37.864;2023-07-31T09:46:05;99141.94;;;28.84;29.11
75208;BME280;63795;55.684;37.864;2023-07-31T09:51:13;99152.81;;;28.65;28.07
75208;BME280;63795;55.684;37.864;2023-07-31T09:56:13;99161.66;;;28.78;28.40
75208;BME280;63795;55.684;37.864;2023-07-31T10:01:14;99154.25;;;29.38;29.58
75208;BME280;63795;55.684;37.864;2023-07-31T10:06:14;99155.69;;;29.82;28.34
75208;BME280;63795;55.684;37.864;2023-07-31T10:11:16;99160.53;;;29.61;28.35
75208;BME280;63795;55.684;37.864;2023-07-31T10:16:17;99162.91;;;29.63;27.50
75208;BME280;63795;55.684;37.864;2023-07-31T10:21:18;99148.81;;;29.48;28.41
75208;BME280;63795;55.684;37.864;2023-07-31T10:26:19;99140.44;;;29.89;28.18
75208;BME280;63795;55.684;37.864;2023-07-31T10:31:23;99147.22;;;30.42;28.40
75208;BME280;63795;55.684;37.864;2023-07-31T10:36:24;99154.66;;;30.69;28.08
75208;BME280;63795;55.684;37.864;2023-07-31T10:41:31;99155.00;;;30.08;26.82
75208;BME280;63795;55.684;37.864;2023-07-31T10:46:32;99151.22;;;29.63;27.28
75208;BME280;63795;55.684;37.864;2023-07-31T10:51:34;99141.97;;;29.59;27.46
75208;BME280;63795;55.684;37.864;2023-07-31T10:56:37;99144.34;;;29.79;27.65
75208;BME280;63795;55.684;37.864;2023-07-31T11:06:57;99143.69;;;29.67;27.65
75208;BME280;63795;55.684;37.864;2023-07-31T11:11:59;99135.66;;;29.73;27.51
75208;BME280;63795;55.684;37.864;2023-07-31T11:16:59;99135.66;;;29.55;27.71
75208;BME280;63795;55.684;37.864;2023-07-31T11:21:59;99137.97;;;29.24;27.65
75208;BME280;63795;55.684;37.864;2023-07-31T11:27:07;99122.97;;;28.53;28.75
75208;BME280;63795;55.684;37.864;2023-07-31T11:32:16;99129.41;;;27.93;29.58
75208;BME280;63795;55.684;37.864;2023-07-31T11:37:17;99125.94;;;27.24;30.45
75208;BME280;63795;55.684;37.864;2023-07-31T11:42:17;99126.41;;;26.92;31.57
75208;BME280;63795;55.684;37.864;2023-07-31T11:47:18;99130.72;;;26.69;31.87
75208;BME280;63795;55.684;37.864;2023-07-31T11:52:18;99135.72;;;26.80;32.09
75208;BME280;63795;55.684;37.864;2023-07-31T11:57:23;99127.31;;;27.17;31.79
75208;BME280;63795;55.684;37.864;2023-07-31T12:02:24;99132.44;;;27.76;31.67
75208;BME280;63795;55.684;37.864;2023-07-31T12:07:25;99130.56;;;28.14;30.69
75208;BME280;63795;55.684;37.864;2023-07-31T12:12:25;99128.09;;;27.94;29.85
75208;BME280;63795;55.684;37.864;2023-07-31T12:17:26;99135.91;;;27.74;30.66
75208;BME280;63795;55.684;37.864;2023-07-31T12:22:26;99141.25;;;27.35;31.45
75208;BME280;63795;55.684;37.864;2023-07-31T12:27:32;99138.97;;;27.12;32.61
75208;BME280;63795;55.684;37.864;2023-07-31T12:32:33;99135.22;;;27.22;32.76
75208;BME280;63795;55.684;37.864;2023-07-31T12:37:33;99149.53;;;27.96;32.76
75208;BME280;63795;55.684;37.864;2023-07-31T12:42:34;99143.16;;;27.62;32.66
75208;BME280;63795;55.684;37.864;2023-07-31T12:47:34;99140.47;;;27.29;33.07
75208;BME280;63795;55.684;37.864;2023-07-31T12:52:35;99141.16;;;27.00;33.55
75208;BME280;63795;55.684;37.864;2023-07-31T12:57:35;99141.59;;;26.58;34.30
75208;BME280;63795;55.684;37.864;2023-07-31T13:02:36;99144.59;;;26.25;35.11
75208;BME280;63795;55.684;37.864;2023-07-31T13:07:36;99141.72;;;26.08;35.19
75208;BME280;63795;55.684;37.864;2023-07-31T13:12:37;99152.00;;;25.98;35.41
75208;BME280;63795;55.684;37.864;2023-07-31T13:17:37;99154.16;;;25.75;35.97
75208;BME280;63795;55.684;37.864;2023-07-31T13:22:38;99149.91;;;25.54;36.82
75208;BME280;63795;55.684;37.864;2023-07-31T13:27:39;99144.03;;;25.38;36.70
75208;BME280;63795;55.684;37.864;2023-07-31T13:32:39;99144.03;;;25.38;37.05
75208;BME280;63795;55.684;37.864;2023-07-31T13:37:39;99136.66;;;25.37;36.72
75208;BME280;63795;55.684;37.864;2023-07-31T13:42:40;99138.81;;;25.42;36.93
75208;BME280;63795;55.684;37.864;2023-07-31T13:47:40;99139.59;;;25.48;37.03
75208;BME280;63795;55.684;37.864;2023-07-31T13:52:41;99140.16;;;25.57;37.02
75208;BME280;63795;55.684;37.864;2023-07-31T13:57:41;99136.19;;;25.60;37.20
75208;BME280;63795;55.684;37.864;2023-07-31T14:02:42;99130.13;;;25.47;37.84
75208;BME280;63795;55.684;37.864;2023-07-31T14:07:42;99122.47;;;25.61;37.31
75208;BME280;63795;55.684;37.864;2023-07-31T14:12:43;99120.63;;;25.63;37.33
75208;BME280;63795;55.684;37.864;2023-07-31T14:17:43;99129.31;;;25.52;37.43
75208;BME280;63795;55.684;37.864;2023-07-31T14:22:44;99126.63;;;25.32;37.85
75208;BME280;63795;55.684;37.864;2023-07-31T14:27:44;99123.41;;;25.08;38.27
75208;BME280;63795;55.684;37.864;2023-07-31T14:32:44;99128.41;;;24.91;38.62
75208;BME280;63795;55.684;37.864;2023-07-31T14:37:45;99130.50;;;24.85;38.84
75208;BME280;63795;55.684;37.864;2023-07-31T14:42:45;99130.75;;;24.87;39.23
75208;BME280;63795;55.684;37.864;2023-07-31T14:47:46;99123.69;;;24.99;39.62
75208;BME280;63795;55.684;37.864;2023-07-31T14:52:48;99132.09;;;24.97;40.53
75208;BME280;63795;55.684;37.864;2023-07-31T14:57:48;99128.69;;;24.98;40.31
75208;BME280;63795;55.684;37.864;2023-07-31T15:02:48;99126.78;;;24.90;40.85
75208;BME280;63795;55.684;37.864;2023-07-31T15:07:49;99128.63;;;24.82;40.61
75208;BME280;63795;55.684;37.864;2023-07-31T15:12:49;99131.47;;;24.71;41.43
75208;BME280;63795;55.684;37.864;2023-07-31T15:17:50;99126.50;;;24.77;40.94
75208;BME280;63795;55.684;37.864;2023-07-31T15:22:50;99134.16;;;24.85;41.47
75208;BME280;63795;55.684;37.864;2023-07-31T15:27:51;99136.78;;;24.83;41.30
75208;BME280;63795;55.684;37.864;2023-07-31T15:32:52;99134.97;;;24.86;41.18
75208;BME280;63795;55.684;37.864;2023-07-31T15:37:53;99141.31;;;24.90;41.60
75208;BME280;63795;55.684;37.864;2023-07-31T15:42:53;99138.94;;;24.88;41.97
75208;BME280;63795;55.684;37.864;2023-07-31T15:47:54;99134.44;;;24.87;41.92
75208;BME280;63795;55.684;37.864;2023-07-31T15:52:54;99122.06;;;24.87;41.93
75208;BME280;63795;55.684;37.864;2023-07-31T15:57:55;99128.13;;;24.89;42.28
75208;BME280;63795;55.684;37.864;2023-07-31T16:02:55;99125.44;;;24.74;42.91
75208;BME280;63795;55.684;37.864;2023-07-31T16:07:56;99125.59;;;24.60;43.27
75208;BME280;63795;55.684;37.864;2023-07-31T16:12:56;99124.50;;;24.52;42.83
75208;BME280;63795;55.684;37.864;2023-07-31T16:17:57;99117.84;;;24.29;43.93
75208;BME280;63795;55.684;37.864;2023-07-31T16:22:57;99125.91;;;24.19;44.51
75208;BME280;63795;55.684;37.864;2023-07-31T16:27:57;99130.06;;;24.07;44.93
75208;BME280;63795;55.684;37.864;2023-07-31T16:32:58;99136.03;;;23.98;44.64
75208;BME280;63795;55.684;37.864;2023-07-31T16:37:58;99133.31;;;23.89;45.29
75208;BME280;63795;55.684;37.864;2023-07-31T16:42:59;99138.53;;;23.80;46.19
75208;BME280;63795;55.684;37.864;2023-07-31T16:48:00;99148.47;;;23.73;45.64
75208;BME280;63795;55.684;37.864;2023-07-31T16:53:01;99137.38;;;23.66;45.30
75208;BME280;63795;55.684;37.864;2023-07-31T16:58:01;99144.38;;;23.54;45.78
75208;BME280;63795;55.684;37.864;2023-07-31T17:03:03;99153.06;;;23.54;45.39
75208;BME280;63795;55.684;37.864;2023-07-31T17:08:03;99160.63;;;23.46;45.86
75208;BME280;63795;55.684;37.864;2023-07-31T17:13:04;99166.41;;;23.46;45.46
75208;BME280;63795;55.684;37.864;2023-07-31T17:18:04;99179.09;;;23.54;45.85
75208;BME280;63795;55.684;37.864;2023-07-31T17:23:05;99172.50;;;23.53;45.38
75208;BME280;63795;55.684;37.864;2023-07-31T17:28:05;99183.00;;;23.51;45.16
75208;BME280;63795;55.684;37.864;2023-07-31T17:33:05;99191.94;;;23.47;45.24
75208;BME280;63795;55.684;37.864;2023-07-31T17:38:06;99193.16;;;23.41;45.40
75208;BME280;63795;55.684;37.864;2023-07-31T17:43:07;99198.38;;;23.37;46.38
75208;BME280;63795;55.684;37.864;2023-07-31T17:48:08;99198.97;;;23.21;46.33
75208;BME280;63795;55.684;37.864;2023-07-31T17:53:08;99211.28;;;23.16;45.80
75208;BME280;63795;55.684;37.864;2023-07-31T17:58:09;99216.72;;;23.08;46.82
75208;BME280;63795;55.684;37.864;2023-07-31T18:03:09;99222.38;;;22.97;46.55
75208;BME280;63795;55.684;37.864;2023-07-31T18:08:12;99222.59;;;22.94;46.33
75208;BME280;63795;55.684;37.864;2023-07-31T18:13:13;99221.00;;;22.93;46.39
75208;BME280;63795;55.684;37.864;2023-07-31T18:18:14;99215.66;;;22.86;46.79
75208;BME280;63795;55.684;37.864;2023-07-31T18:23:15;99225.72;;;22.90;47.57
75208;BME280;63795;55.684;37.864;2023-07-31T18:28:18;99226.88;;;22.78;48.13
75208;BME280;63795;55.684;37.864;2023-07-31T18:33:19;99225.13;;;22.66;47.49
75208;BME280;63795;55.684;37.864;2023-07-31T18:38:19;99230.69;;;22.69;47.20
75208;BME280;63795;55.684;37.864;2023-07-31T18:43:20;99235.66;;;22.69;47.56
75208;BME280;63795;55.684;37.864;2023-07-31T18:48:20;99230.09;;;22.65;47.37
75208;BME280;63795;55.684;37.864;2023-07-31T18:53:21;99229.53;;;22.61;47.16
75208;BME280;63795;55.684;37.864;2023-07-31T18:58:21;99229.34;;;22.50;47.58
75208;BME280;63795;55.684;37.864;2023-07-31T19:03:22;99228.00;;;22.31;48.73
75208;BME280;63795;55.684;37.864;2023-07-31T19:08:22;99237.34;;;22.06;49.19
75208;BME280;63795;55.684;37.864;2023-07-31T19:13:23;99214.38;;;21.82;49.25
75208;BME280;63795;55.684;37.864;2023-07-31T19:18:23;99233.25;;;21.69;49.69
75208;BME280;63795;55.684;37.864;2023-07-31T19:23:24;99229.16;;;21.61;49.48
75208;BME280;63795;55.684;37.864;2023-07-31T19:28:25;99234.63;;;21.59;52.41
75208;BME280;63795;55.684;37.864;2023-07-31T19:33:25;99232.44;;;21.39;50.20
75208;BME280;63795;55.684;37.864;2023-07-31T19:38:26;99240.59;;;21.41;50.42
75208;BME280;63795;55.684;37.864;2023-07-31T19:43:26;99239.69;;;21.35;50.49
75208;BME280;63795;55.684;37.864;2023-07-31T19:48:27;99237.22;;;21.28;50.42
75208;BME280;63795;55.684;37.864;2023-07-31T19:53:28;99244.75;;;21.25;50.75
75208;BME280;63795;55.684;37.864;2023-07-31T19:58:31;99245.50;;;21.11;51.69
75208;BME280;63795;55.684;37.864;2023-07-31T20:03:32;99247.69;;;21.01;53.18
75208;BME280;63795;55.684;37.864;2023-07-31T20:08:32;99248.22;;;20.91;51.74
75208;BME280;63795;55.684;37.864;2023-07-31T20:13:33;99249.00;;;20.91;51.96
75208;BME280;63795;55.684;37.864;2023-07-31T20:18:33;99248.91;;;20.86;53.27
75208;BME280;63795;55.684;37.864;2023-07-31T20:23:34;99248.34;;;20.73;53.06
75208;BME280;63795;55.684;37.864;2023-07-31T20:28:34;99256.56;;;20.65;53.34
75208;BME280;63795;55.684;37.864;2023-07-31T20:33:35;99244.13;;;20.59;53.50
75208;BME280;63795;55.684;37.864;2023-07-31T20:38:35;99256.56;;;20.65;53.41
75208;BME280;63795;55.684;37.864;2023-07-31T20:43:36;99257.84;;;20.64;54.01
75208;BME280;63795;55.684;37.864;2023-07-31T20:48:36;99258.84;;;20.61;54.70
75208;BME280;63795;55.684;37.864;2023-07-31T20:53:37;99253.06;;;20.61;54.53
75208;BME280;63795;55.684;37.864;2023-07-31T20:58:40;99253.69;;;20.65;54.14
75208;BME280;63795;55.684;37.864;2023-07-31T21:03:41;99249.19;;;20.64;54.42
75208;BME280;63795;55.684;37.864;2023-07-31T21:08:41;99253.31;;;20.72;53.97
75208;BME280;63795;55.684;37.864;2023-07-31T21:13:42;99252.84;;;20.74;54.07
75208;BME280;63795;55.684;37.864;2023-07-31T21:18:42;99249.50;;;20.66;55.70
75208;BME280;63795;55.684;37.864;2023-07-31T21:23:43;99246.38;;;20.55;55.09
75208;BME280;63795;55.684;37.864;2023-07-31T21:28:43;99251.41;;;20.46;56.79
75208;BME280;63795;55.684;37.864;2023-07-31T21:33:44;99247.44;;;20.43;54.97
75208;BME280;63795;55.684;37.864;2023-07-31T21:38:44;99247.53;;;20.49;55.09
75208;BME280;63795;55.684;37.864;2023-07-31T21:43:45;99244.53;;;20.43;54.97
75208;BME280;63795;55.684;37.864;2023-07-31T21:48:45;99245.69;;;20.37;54.66
75208;BME280;63795;55.684;37.864;2023-07-31T21:53:45;99237.56;;;20.35;54.68
75208;BME280;63795;55.684;37.864;2023-07-31T21:58:46;99243.31;;;20.35;55.01
75208;BME280;63795;55.684;37.864;2023-07-31T22:03:46;99244.31;;;20.32;54.77
75208;BME280;63795;55.684;37.864;2023-07-31T22:08:47;99244.97;;;20.27;55.14
75208;BME280;63795;55.684;37.864;2023-07-31T22:13:47;99246.91;;;20.21;55.19
75208;BME280;63795;55.684;37.864;2023-07-31T22:18:48;99241.81;;;20.16;55.17
75208;BME280;63795;55.684;37.864;2023-07-31T22:23:48;99242.44;;;20.11;55.25
75208;BME280;63795;55.684;37.864;2023-07-31T22:28:49;99228.88;;;20.02;55.52
75208;BME280;63795;55.684;37.864;2023-07-31T22:33:50;99235.13;;;20.01;55.84
75208;BME280;63795;55.684;37.864;2023-07-31T22:38:51;99244.75;;;19.98;56.06
75208;BME280;63795;55.684;37.864;2023-07-31T22:43:51;99247.47;;;19.92;56.46
75208;BME280;63795;55.684;37.864;2023-07-31T22:48:51;99239.69;;;19.84;56.35
75208;BME280;63795;55.684;37.864;2023-07-31T22:53:53;99244.81;;;19.80;58.37
75208;BME280;63795;55.684;37.864;2023-07-31T22:58:55;99232.38;;;19.65;56.55
75208;BME280;63795;55.684;37.864;2023-07-31T23:03:56;99238.13;;;19.65;56.66
75208;BME280;63795;55.684;37.864;2023-07-31T23:08:56;99232.88;;;19.54;56.76
75208;BME280;63795;55.684;37.864;2023-07-31T23:13:57;99243.94;;;19.46;56.88
75208;BME280;63795;55.684;37.864;2023-07-31T23:18:57;99248.09;;;19.45;58.39
75208;BME280;63795;55.684;37.864;2023-07-31T23:23:58;99247.63;;;19.38;57.53
75208;BME280;63795;55.684;37.864;2023-07-31T23:28:58;99256.41;;;19.34;57.81
75208;BME280;63795;55.684;37.864;2023-07-31T23:34:00;99248.09;;;19.27;57.71
75208;BME280;63795;55.684;37.864;2023-07-31T23:39:01;99244.91;;;19.25;58.24
75208;BME280;63795;55.684;37.864;2023-07-31T23:44:01;99244.59;;;19.14;58.92
75208;BME280;63795;55.684;37.864;2023-07-31T23:49:03;99237.88;;;19.08;59.74
75208;BME280;63795;55.684;37.864;2023-07-31T23:54:03;99243.00;;;19.04;59.16
75208;BME280;63795;55.684;37.864;2023-07-31T23:59:05;99238.22;;;18.92;58.77
